createdAt,value
2023-04-20T00:02:04.180Z,6.20
2023-04-20T00:04:36.587Z,6.25
2023-04-20T00:07:08.928Z,6.35
2023-04-20T00:09:39.750Z,6.33
2023-04-20T00:12:10.270Z,6.26
2023-04-20T00:14:41.775Z,6.23
2023-04-20T00:17:12.268Z,6.22
2023-04-20T00:19:42.845Z,6.29
2023-04-20T00:22:13.933Z,6.22
2023-04-20T00:24:44.583Z,6.22
2023-04-20T00:27:15.150Z,6.17
2023-04-20T00:29:45.911Z,6.12
2023-04-20T00:32:16.466Z,6.20
2023-04-20T00:34:47.526Z,6.18
2023-04-20T00:37:18.138Z,6.30
2023-04-20T00:39:48.556Z,6.24
2023-04-20T00:42:19.197Z,6.15
2023-04-20T00:44:50.556Z,6.18
2023-04-20T00:47:21.294Z,6.26
2023-04-20T00:49:52.776Z,6.15
2023-04-20T00:52:24.487Z,6.12
2023-04-20T00:54:55.711Z,6.17
2023-04-20T00:57:27.240Z,6.12
2023-04-20T00:59:57.809Z,6.12
2023-04-20T01:02:28.799Z,6.11
2023-04-20T01:04:59.636Z,6.10
2023-04-20T01:07:30.305Z,6.10
2023-04-20T01:10:00.957Z,6.24
2023-04-20T01:12:31.540Z,6.20
2023-04-20T01:15:03.226Z,6.28
2023-04-20T01:17:34.773Z,6.24
2023-04-20T01:20:08.553Z,6.24
2023-04-20T01:22:47.031Z,6.36
2023-04-20T01:25:21.077Z,6.26
2023-04-20T01:27:51.633Z,6.30
2023-04-20T01:30:22.158Z,6.23
2023-04-20T01:32:52.953Z,6.24
2023-04-20T01:35:23.850Z,6.14
2023-04-20T01:37:54.354Z,6.07
2023-04-20T01:40:24.922Z,6.09
2023-04-20T01:42:55.409Z,6.20
2023-04-20T01:45:27.244Z,6.09
2023-04-20T01:47:59.257Z,6.16
2023-04-20T01:50:30.344Z,6.20
2023-04-20T01:53:01.064Z,6.25
2023-04-20T01:55:31.675Z,6.30
2023-04-20T01:58:02.207Z,6.32
2023-04-20T02:00:32.934Z,6.26
2023-04-20T02:03:03.503Z,6.24
2023-04-20T02:05:34.116Z,6.13
2023-04-20T02:08:04.865Z,6.15
2023-04-20T02:10:35.425Z,6.22
2023-04-20T02:13:05.821Z,6.22
2023-04-20T02:15:36.334Z,6.10
2023-04-20T02:18:07.061Z,6.13
2023-04-20T02:20:37.553Z,6.10
2023-04-20T02:23:08.213Z,6.23
2023-04-20T02:25:39.204Z,6.30
2023-04-20T02:28:10.003Z,6.23
2023-04-20T02:30:42.114Z,6.24
2023-04-20T02:33:12.758Z,6.27
2023-04-20T02:35:43.686Z,6.21
2023-04-20T02:38:15.689Z,6.28
2023-04-20T02:40:46.322Z,6.31
2023-04-20T02:43:16.825Z,6.24
2023-04-20T02:45:47.517Z,6.33
2023-04-20T02:48:18.780Z,6.34
2023-04-20T02:50:49.375Z,6.36
2023-04-20T02:53:20.319Z,6.42
2023-04-20T02:55:52.558Z,6.37
2023-04-20T02:58:23.031Z,6.37
2023-04-20T03:00:53.525Z,6.36
2023-04-20T03:03:24.188Z,6.43
2023-04-20T03:05:56.774Z,6.44
2023-04-20T03:08:27.330Z,6.60
2023-04-20T03:10:58.015Z,6.60
2023-04-20T03:13:28.494Z,6.55
2023-04-20T03:15:59.207Z,6.66
2023-04-20T03:18:29.670Z,6.58
2023-04-20T03:21:01.360Z,6.60
2023-04-20T03:23:32.014Z,6.66
2023-04-20T03:26:02.798Z,6.60
2023-04-20T03:28:33.267Z,6.55
2023-04-20T03:31:05.774Z,6.56
2023-04-20T03:33:36.378Z,6.60
2023-04-20T03:36:09.324Z,6.62
2023-04-20T03:38:39.911Z,6.74
2023-04-20T03:41:10.515Z,6.66
2023-04-20T03:43:41.744Z,6.58
2023-04-20T03:46:12.380Z,6.62
2023-04-20T03:48:43.030Z,6.62
2023-04-20T03:51:13.574Z,6.66
2023-04-20T03:53:44.328Z,6.60
2023-04-20T03:56:15.356Z,6.61
2023-04-20T03:58:45.924Z,6.46
2023-04-20T04:01:16.650Z,6.46
2023-04-20T04:03:47.511Z,6.50
2023-04-20T04:06:18.269Z,6.38
2023-04-20T04:08:50.637Z,6.44
2023-04-20T04:11:21.134Z,6.42
2023-04-20T04:13:51.724Z,6.48
2023-04-20T04:16:22.329Z,6.57
2023-04-20T04:18:52.777Z,6.54
2023-04-20T04:21:23.321Z,6.48
2023-04-20T04:23:53.881Z,6.47
2023-04-20T04:26:24.862Z,6.54
2023-04-20T04:28:56.248Z,6.54
2023-04-20T04:31:27.504Z,6.53
2023-04-20T04:33:58.177Z,6.62
2023-04-20T04:36:30.683Z,6.61
2023-04-20T04:39:01.191Z,6.65
2023-04-20T04:41:31.727Z,6.66
2023-04-20T04:44:03.376Z,6.57
2023-04-20T04:46:34.054Z,6.64
2023-04-20T04:49:06.031Z,6.63
2023-04-20T04:51:37.843Z,6.66
2023-04-20T04:54:08.308Z,6.69
2023-04-20T04:56:38.911Z,6.64
2023-04-20T04:59:10.370Z,6.68
2023-04-20T05:01:41.107Z,6.56
2023-04-20T05:04:11.908Z,6.59
2023-04-20T05:06:42.752Z,6.64
2023-04-20T05:09:13.354Z,6.66
2023-04-20T05:11:44.073Z,6.81
2023-04-20T05:14:14.658Z,6.82
2023-04-20T05:16:45.207Z,6.84
2023-04-20T05:19:16.032Z,6.98
2023-04-20T05:21:51.317Z,7.00
2023-04-20T05:24:21.941Z,7.07
2023-04-20T05:26:52.609Z,7.28
2023-04-20T05:29:23.088Z,7.14
2023-04-20T05:31:53.528Z,7.18
2023-04-20T05:34:24.022Z,7.04
2023-04-20T05:36:57.055Z,7.10
2023-04-20T05:39:27.615Z,7.19
2023-04-20T05:41:58.160Z,7.26
2023-04-20T05:44:31.155Z,7.34
2023-04-20T05:47:02.245Z,7.26
2023-04-20T05:49:33.394Z,7.36
2023-04-20T05:52:04.526Z,7.25
2023-04-20T05:54:35.052Z,7.30
2023-04-20T05:57:05.801Z,7.34
2023-04-20T05:59:37.324Z,7.65
2023-04-20T06:02:09.841Z,7.60
2023-04-20T06:04:43.523Z,7.70
2023-04-20T06:07:14.765Z,7.60
2023-04-20T06:09:45.582Z,7.66
2023-04-20T06:12:16.335Z,7.64
2023-04-20T06:14:47.206Z,7.66
2023-04-20T06:17:17.715Z,7.60
2023-04-20T06:19:48.618Z,7.40
2023-04-20T06:22:20.021Z,7.57
2023-04-20T06:24:50.742Z,7.72
2023-04-20T06:27:21.315Z,7.78
2023-04-20T06:29:54.815Z,7.52
2023-04-20T06:32:25.745Z,7.53
2023-04-20T06:34:56.491Z,7.55
2023-04-20T06:37:27.992Z,7.72
2023-04-20T06:40:00.179Z,7.82
2023-04-20T06:42:30.774Z,7.60
2023-04-20T06:45:02.402Z,7.88
2023-04-20T06:47:33.900Z,7.89
2023-04-20T06:50:09.933Z,8.12
2023-04-20T06:52:42.605Z,8.20
2023-04-20T06:55:14.052Z,7.98
2023-04-20T06:57:44.645Z,8.12
2023-04-20T07:00:16.116Z,8.30
2023-04-20T07:02:49.198Z,8.14
2023-04-20T07:05:20.902Z,8.42
2023-04-20T07:07:51.509Z,8.48
2023-04-20T07:10:22.273Z,8.64
2023-04-20T07:12:52.809Z,8.88
2023-04-20T07:15:24.223Z,8.95
2023-04-20T07:17:54.844Z,9.00
2023-04-20T07:20:26.085Z,8.92
2023-04-20T07:22:56.786Z,8.74
2023-04-20T07:25:30.542Z,8.84
2023-04-20T07:28:01.386Z,9.10
2023-04-20T07:30:33.297Z,9.03
2023-04-20T07:33:04.931Z,9.08
2023-04-20T07:35:37.087Z,9.38
2023-04-20T07:38:07.664Z,9.59
2023-04-20T07:40:38.042Z,9.40
2023-04-20T07:43:08.570Z,8.96
2023-04-20T07:45:41.909Z,8.96
2023-04-20T07:48:13.114Z,9.23
2023-04-20T07:50:43.877Z,9.37
2023-04-20T07:53:14.616Z,9.26
2023-04-20T07:55:46.380Z,9.02
2023-04-20T07:58:38.027Z,8.98
2023-04-20T08:01:14.160Z,8.94
2023-04-20T08:04:00.441Z,9.37
2023-04-20T08:06:31.897Z,9.42
2023-04-20T08:09:03.692Z,9.44
2023-04-20T08:11:34.405Z,9.64
2023-04-20T08:14:06.465Z,9.52
2023-04-20T08:16:40.374Z,9.75
2023-04-20T08:19:16.862Z,9.97
2023-04-20T08:21:48.999Z,10.20
2023-04-20T08:24:20.944Z,10.28
2023-04-20T08:26:51.869Z,10.08
2023-04-20T08:29:26.494Z,9.82
2023-04-20T08:31:58.232Z,10.15
2023-04-20T08:34:29.966Z,10.54
2023-04-20T08:37:00.586Z,10.50
2023-04-20T08:39:31.060Z,10.42
2023-04-20T08:42:02.098Z,10.18
2023-04-20T08:44:32.989Z,9.82
2023-04-20T08:47:05.046Z,9.76
2023-04-20T08:49:39.711Z,9.60
2023-04-20T08:52:11.649Z,9.37
2023-04-20T08:54:55.178Z,9.02
2023-04-20T08:57:16.385Z,9.04
2023-04-20T08:59:48.341Z,9.00
2023-04-20T09:02:19.336Z,8.84
2023-04-20T09:04:50.271Z,8.66
2023-04-20T09:07:22.425Z,8.68
2023-04-20T09:10:00.068Z,8.52
2023-04-20T09:12:33.346Z,8.51
2023-04-20T09:15:06.007Z,8.36
2023-04-20T09:17:41.058Z,8.18
2023-04-20T09:20:13.471Z,8.22
2023-04-20T09:22:44.468Z,8.08
2023-04-20T09:25:22.624Z,8.00
2023-04-20T09:27:58.831Z,7.93
2023-04-20T09:30:51.522Z,7.94
2023-04-20T09:33:24.982Z,8.05
2023-04-20T09:36:00.341Z,8.15
2023-04-20T09:38:34.671Z,8.24
2023-04-20T09:41:05.375Z,8.58
2023-04-20T09:43:37.101Z,8.93
2023-04-20T09:46:09.219Z,8.90
2023-04-20T09:48:41.802Z,9.12
2023-04-20T09:51:13.331Z,9.30
2023-04-20T09:53:47.197Z,9.24
2023-04-20T09:56:20.968Z,9.49
2023-04-20T09:58:53.396Z,9.87
2023-04-20T10:01:25.963Z,10.07
2023-04-20T10:03:57.570Z,10.06
2023-04-20T10:06:30.969Z,10.18
2023-04-20T10:09:04.892Z,10.70
2023-04-20T10:11:52.465Z,10.70
2023-04-20T10:14:18.474Z,10.66
2023-04-20T10:17:07.299Z,10.40
2023-04-20T10:19:46.059Z,10.86
2023-04-20T10:22:19.806Z,11.57
2023-04-20T10:24:50.461Z,11.58
2023-04-20T10:27:24.318Z,11.74
2023-04-20T10:29:55.870Z,11.46
2023-04-20T10:32:28.633Z,11.18
2023-04-20T10:35:12.087Z,11.84
2023-04-20T10:37:50.201Z,12.28
2023-04-20T10:40:28.061Z,12.54
2023-04-20T10:42:58.609Z,12.03
2023-04-20T10:45:38.630Z,12.52
2023-04-20T10:48:11.437Z,12.38
2023-04-20T10:50:42.116Z,12.60
2023-04-20T10:53:23.771Z,12.30
2023-04-20T10:56:01.769Z,12.52
2023-04-20T10:58:32.350Z,12.55
2023-04-20T11:01:05.009Z,12.16
2023-04-20T11:03:36.376Z,12.01
2023-04-20T11:06:07.633Z,12.27
2023-04-20T11:08:43.313Z,12.22
2023-04-20T11:11:21.470Z,12.12
2023-04-20T11:13:53.828Z,12.02
2023-04-20T11:16:30.465Z,12.45
2023-04-20T11:19:00.071Z,12.20
2023-04-20T11:21:43.643Z,12.22
2023-04-20T11:24:25.450Z,12.83
2023-04-20T11:26:57.926Z,12.94
2023-04-20T11:29:36.301Z,13.49
2023-04-20T11:32:10.255Z,12.78
2023-04-20T11:34:43.502Z,12.84
2023-04-20T11:37:18.575Z,12.96
2023-04-20T11:39:52.304Z,13.14
2023-04-20T11:42:22.947Z,13.03
2023-04-20T11:44:53.666Z,13.22
2023-04-20T11:47:24.336Z,13.14
2023-04-20T11:49:56.572Z,13.38
2023-04-20T11:52:27.268Z,13.08
2023-04-20T11:54:58.855Z,12.96
2023-04-20T11:57:29.354Z,13.36
2023-04-20T12:00:04.280Z,13.64
2023-04-20T12:02:35.326Z,13.44
2023-04-20T12:05:10.724Z,13.20
2023-04-20T12:07:41.400Z,13.22
2023-04-20T12:10:12.469Z,13.26
2023-04-20T12:12:43.301Z,13.01
2023-04-20T12:15:16.921Z,13.14
2023-04-20T12:17:48.041Z,13.05
2023-04-20T12:20:18.661Z,13.53
2023-04-20T12:22:50.459Z,13.72
2023-04-20T12:25:23.076Z,13.54
2023-04-20T12:27:54.742Z,13.47
2023-04-20T12:30:28.379Z,13.50
2023-04-20T12:32:58.931Z,13.23
2023-04-20T12:35:31.102Z,13.42
2023-04-20T12:38:05.522Z,13.26
2023-04-20T12:40:36.937Z,13.04
2023-04-20T12:43:07.472Z,13.01
2023-04-20T12:45:38.408Z,12.95
2023-04-20T12:48:09.055Z,12.95
2023-04-20T12:50:39.934Z,13.35
2023-04-20T12:53:10.903Z,13.46
2023-04-20T12:55:42.462Z,13.12
2023-04-20T12:58:16.137Z,13.11
2023-04-20T13:00:46.821Z,13.08
2023-04-20T13:03:17.835Z,13.52
2023-04-20T13:05:49.161Z,13.81
2023-04-20T13:08:20.596Z,14.03
2023-04-20T13:10:52.667Z,14.18
2023-04-20T13:13:23.535Z,14.46
2023-04-20T13:15:58.413Z,14.84
2023-04-20T13:18:28.994Z,14.90
2023-04-20T13:20:59.645Z,15.18
2023-04-20T13:23:30.283Z,15.50
2023-04-20T13:26:03.012Z,14.94
2023-04-20T13:28:37.837Z,14.93
2023-04-20T13:31:09.778Z,14.76
2023-04-20T13:33:40.538Z,14.96
2023-04-20T13:36:11.258Z,14.68
2023-04-20T13:38:42.754Z,14.88
2023-04-20T13:41:16.279Z,14.94
2023-04-20T13:43:47.120Z,14.93
2023-04-20T13:46:18.139Z,15.08
2023-04-20T13:48:48.984Z,15.61
2023-04-20T13:51:20.992Z,15.40
2023-04-20T13:53:51.758Z,15.21
2023-04-20T13:56:22.588Z,15.06
2023-04-20T13:58:53.053Z,15.06
2023-04-20T14:01:25.230Z,14.92
2023-04-20T14:03:56.677Z,14.94
2023-04-20T14:06:28.880Z,14.68
2023-04-20T14:08:59.512Z,14.70
2023-04-20T14:11:30.040Z,14.66
2023-04-20T14:14:01.221Z,14.58
2023-04-20T14:16:32.645Z,14.58
2023-04-20T14:19:03.484Z,14.97
2023-04-20T14:21:33.962Z,15.29
2023-04-20T14:24:04.940Z,15.48
2023-04-20T14:26:35.501Z,15.66
2023-04-20T14:29:06.631Z,15.72
2023-04-20T14:31:38.687Z,15.56
2023-04-20T14:34:15.463Z,15.70
2023-04-20T14:36:49.270Z,15.78
2023-04-20T14:39:21.576Z,15.41
2023-04-20T14:41:53.229Z,15.65
2023-04-20T14:44:23.855Z,15.74
2023-04-20T14:46:55.516Z,15.90
2023-04-20T14:49:26.315Z,16.12
2023-04-20T14:51:58.358Z,16.10
2023-04-20T14:54:30.534Z,15.92
2023-04-20T14:57:01.515Z,15.75
2023-04-20T14:59:34.157Z,15.71
2023-04-20T15:02:05.894Z,15.78
2023-04-20T15:04:36.949Z,15.85
2023-04-20T15:07:07.735Z,15.87
2023-04-20T15:09:38.620Z,15.89
2023-04-20T15:12:09.826Z,15.79
2023-04-20T15:14:41.815Z,15.80
2023-04-20T15:17:15.171Z,15.61
2023-04-20T15:19:46.289Z,15.58
2023-04-20T15:22:17.027Z,15.51
2023-04-20T15:24:49.104Z,15.44
2023-04-20T15:27:19.729Z,15.48
2023-04-20T15:29:50.512Z,15.49
2023-04-20T15:32:22.748Z,15.42
2023-04-20T15:34:54.200Z,15.52
2023-04-20T15:37:24.853Z,15.54
2023-04-20T15:39:56.118Z,15.54
2023-04-20T15:42:27.636Z,15.59
2023-04-20T15:44:58.417Z,15.76
2023-04-20T15:47:29.103Z,15.83
2023-04-20T15:50:01.665Z,15.96
2023-04-20T15:52:33.084Z,15.80
2023-04-20T15:55:05.245Z,15.75
2023-04-20T15:57:36.040Z,15.54
2023-04-20T16:00:09.686Z,15.57
2023-04-20T16:02:40.423Z,15.61
2023-04-20T16:05:23.536Z,15.63
2023-04-20T16:07:55.158Z,15.74
2023-04-20T16:10:27.549Z,15.77
2023-04-20T16:12:59.078Z,15.78
2023-04-20T16:15:31.784Z,15.50
2023-04-20T16:18:12.897Z,15.37
2023-04-20T16:20:44.862Z,15.24
2023-04-20T16:23:16.738Z,15.25
2023-04-20T16:25:47.828Z,15.34
2023-04-20T16:28:19.833Z,15.24
2023-04-20T16:30:50.947Z,15.33
2023-04-20T16:33:22.084Z,15.30
2023-04-20T16:35:52.848Z,15.32
2023-04-20T16:38:24.401Z,15.33
2023-04-20T16:40:54.874Z,15.29
2023-04-20T16:43:25.793Z,15.43
2023-04-20T16:45:56.601Z,15.53
2023-04-20T16:48:27.401Z,15.67
2023-04-20T16:50:58.104Z,15.74
2023-04-20T16:53:28.672Z,15.76
2023-04-20T16:56:03.236Z,15.81
2023-04-20T16:58:36.680Z,15.74
2023-04-20T17:01:07.756Z,15.70
2023-04-20T17:03:40.349Z,15.66
2023-04-20T17:06:11.104Z,15.55
2023-04-20T17:08:42.615Z,15.46
2023-04-20T17:11:13.778Z,15.39
2023-04-20T17:13:44.812Z,15.30
2023-04-20T17:16:17.125Z,15.25
2023-04-20T17:18:47.655Z,15.14
2023-04-20T17:21:19.720Z,15.10
2023-04-20T17:23:50.906Z,15.00
2023-04-20T17:26:23.935Z,14.98
2023-04-20T17:28:56.395Z,14.84
2023-04-20T17:31:27.433Z,14.80
2023-04-20T17:33:59.334Z,14.81
2023-04-20T17:36:29.841Z,14.76
2023-04-20T17:39:00.984Z,14.60
2023-04-20T17:41:31.878Z,14.54
2023-04-20T17:44:03.074Z,14.48
2023-04-20T17:46:35.443Z,14.42
2023-04-20T17:49:08.992Z,14.36
2023-04-20T17:51:39.761Z,14.37
2023-04-20T17:54:11.606Z,14.30
2023-04-20T17:56:44.776Z,14.26
2023-04-20T17:59:17.270Z,14.23
2023-04-20T18:01:49.429Z,14.21
2023-04-20T18:04:21.119Z,14.17
2023-04-20T18:06:52.290Z,14.19
2023-04-20T18:09:22.838Z,14.08
2023-04-20T18:11:55.123Z,14.03
2023-04-20T18:14:27.779Z,14.01
2023-04-20T18:16:58.693Z,13.94
2023-04-20T18:19:31.730Z,13.94
2023-04-20T18:22:02.533Z,13.97
2023-04-20T18:24:34.028Z,13.96
2023-04-20T18:27:09.083Z,13.91
2023-04-20T18:29:40.948Z,13.88
2023-04-20T18:32:13.186Z,13.76
2023-04-20T18:34:45.531Z,13.76
2023-04-20T18:37:19.124Z,13.64
2023-04-20T18:39:52.720Z,13.61
2023-04-20T18:42:24.983Z,13.51
2023-04-20T18:44:58.938Z,13.53
2023-04-20T18:47:31.825Z,13.49
2023-04-20T18:50:05.012Z,13.42
2023-04-20T18:52:37.198Z,13.44
2023-04-20T18:55:11.211Z,13.40
2023-04-20T18:57:44.614Z,13.36
2023-04-20T19:00:20.011Z,13.36
2023-04-20T19:02:55.818Z,13.36
2023-04-20T19:05:24.783Z,13.36
2023-04-20T19:07:55.397Z,13.26
2023-04-20T19:10:27.765Z,13.25
2023-04-20T19:12:58.538Z,13.22
2023-04-20T19:15:35.043Z,13.20
2023-04-20T19:18:07.259Z,13.16
2023-04-20T19:20:39.847Z,13.14
2023-04-20T19:23:11.162Z,13.15
2023-04-20T19:25:45.253Z,13.09
2023-04-20T19:28:17.012Z,12.97
2023-04-20T19:30:47.849Z,12.97
2023-04-20T19:33:18.651Z,12.96
2023-04-20T19:35:52.463Z,12.90
2023-04-20T19:38:28.108Z,12.80
2023-04-20T19:40:59.048Z,12.88
2023-04-20T19:43:29.572Z,12.95
2023-04-20T19:46:00.575Z,12.92
2023-04-20T19:48:33.249Z,12.92
2023-04-20T19:51:08.468Z,12.76
2023-04-20T19:53:39.398Z,12.73
2023-04-20T19:56:12.350Z,12.65
2023-04-20T19:58:42.892Z,12.74
2023-04-20T20:01:13.887Z,12.69
2023-04-20T20:03:44.704Z,12.62
2023-04-20T20:06:18.092Z,12.64
2023-04-20T20:08:48.886Z,12.58
2023-04-20T20:11:19.640Z,12.58
2023-04-20T20:13:51.612Z,12.59
2023-04-20T20:16:22.285Z,12.55
2023-04-20T20:18:56.998Z,12.46
2023-04-20T20:21:31.879Z,12.44
2023-04-20T20:24:03.491Z,12.44
2023-04-20T20:26:35.847Z,12.56
2023-04-20T20:29:09.658Z,12.47
2023-04-20T20:31:40.134Z,12.39
2023-04-20T20:34:11.695Z,12.40
2023-04-20T20:36:44.142Z,12.37
2023-04-20T20:39:16.175Z,12.39
2023-04-20T20:41:47.322Z,12.41
2023-04-20T20:44:20.691Z,12.34
2023-04-20T20:46:51.734Z,12.44
2023-04-20T20:49:22.790Z,12.30
2023-04-20T20:51:53.333Z,12.22
2023-04-20T20:54:23.898Z,12.14
2023-04-20T20:56:55.302Z,12.15
2023-04-20T20:59:27.015Z,12.16
2023-04-20T21:01:58.298Z,12.20
2023-04-20T21:04:30.985Z,12.15
2023-04-20T21:07:04.808Z,12.12
2023-04-20T21:09:37.148Z,12.10
2023-04-20T21:12:09.319Z,12.15
2023-04-20T21:14:40.021Z,12.04
2023-04-20T21:17:12.014Z,12.09
2023-04-20T21:19:43.343Z,12.10
2023-04-20T21:22:15.977Z,12.07
2023-04-20T21:24:47.568Z,12.10
2023-04-20T21:27:18.009Z,12.08
2023-04-20T21:29:50.738Z,12.09
2023-04-20T21:32:21.386Z,12.03
2023-04-20T21:34:52.670Z,11.93
2023-04-20T21:37:23.828Z,11.96
2023-04-20T21:39:54.354Z,11.92
2023-04-20T21:42:24.998Z,11.95
2023-04-20T21:44:55.599Z,12.04
2023-04-20T21:47:26.311Z,12.05
2023-04-20T21:49:58.187Z,12.04
2023-04-20T21:52:29.933Z,11.99
2023-04-20T21:55:04.953Z,12.01
2023-04-20T21:57:35.502Z,12.03
2023-04-20T22:00:07.512Z,11.99
2023-04-20T22:02:38.546Z,12.02
2023-04-20T22:05:11.037Z,11.98
2023-04-20T22:07:41.675Z,12.06
2023-04-20T22:10:13.522Z,11.99
2023-04-20T22:12:46.048Z,12.02
2023-04-20T22:15:17.022Z,12.00
2023-04-20T22:17:48.828Z,12.02
2023-04-20T22:20:20.581Z,12.00
2023-04-20T22:22:53.827Z,11.97
2023-04-20T22:25:27.173Z,11.94
2023-04-20T22:27:59.612Z,11.87
2023-04-20T22:30:31.309Z,11.92
2023-04-20T22:33:01.961Z,11.87
2023-04-20T22:35:32.792Z,11.81
2023-04-20T22:38:05.078Z,11.78
2023-04-20T22:40:35.610Z,11.81
2023-04-20T22:43:07.688Z,11.79
2023-04-20T22:45:38.215Z,11.84
2023-04-20T22:48:09.418Z,11.79
2023-04-20T22:50:40.563Z,11.74
2023-04-20T22:53:11.300Z,11.77
2023-04-20T22:55:42.244Z,11.76
2023-04-20T22:58:14.696Z,11.82
2023-04-20T23:00:47.906Z,11.76
2023-04-20T23:03:18.634Z,11.80
2023-04-20T23:05:53.735Z,11.78
2023-04-20T23:08:25.574Z,11.77
2023-04-20T23:10:56.180Z,11.79
2023-04-20T23:13:26.783Z,11.81
2023-04-20T23:15:59.010Z,11.76
2023-04-20T23:18:29.683Z,11.71
2023-04-20T23:21:02.034Z,11.74
2023-04-20T23:23:32.972Z,11.74
2023-04-20T23:26:03.542Z,11.75
2023-04-20T23:28:34.187Z,11.74
2023-04-20T23:31:04.910Z,11.72
2023-04-20T23:33:35.428Z,11.71
2023-04-20T23:36:07.132Z,11.62
2023-04-20T23:38:37.727Z,11.65
2023-04-20T23:41:15.684Z,11.62
2023-04-20T23:43:46.202Z,11.56
2023-04-20T23:46:17.233Z,11.54
2023-04-20T23:48:49.272Z,11.50
2023-04-20T23:51:22.110Z,11.52
2023-04-20T23:53:52.756Z,11.43
2023-04-20T23:56:23.451Z,11.38
2023-04-20T23:58:55.177Z,11.36
